sensor_id;sensor_type;location;lat;lon;timestamp;temperature;humidity
9425;DHT22;17139;52.140;11.636;2023-08-31T00:00:22;13.90;58.10
9425;DHT22;17139;52.140;11.636;2023-08-31T00:02:50;13.90;58.10
9425;DHT22;17139;52.140;11.636;2023-08-31T00:05:17;13.80;58.10
9425;DHT22;17139;52.140;11.636;2023-08-31T00:07:45;13.80;58.10
9425;DHT22;17139;52.140;11.636;2023-08-31T00:10:12;13.80;58.10
9425;DHT22;17139;52.140;11.636;2023-08-31T00:12:39;13.80;58.70
9425;DHT22;17139;52.140;11.636;2023-08-31T00:15:09;13.80;58.10
9425;DHT22;17139;52.140;11.636;2023-08-31T00:17:36;13.70;58.20
9425;DHT22;17139;52.140;11.636;2023-08-31T00:20:04;13.70;58.20
9425;DHT22;17139;52.140;11.636;2023-08-31T00:22:33;14.20;59.70
9425;DHT22;17139;52.140;11.636;2023-08-31T00:25:00;14.10;58.20
9425;DHT22;17139;52.140;11.636;2023-08-31T00:27:27;14.30;59.60
9425;DHT22;17139;52.140;11.636;2023-08-31T00:29:55;14.20;58.30
9425;DHT22;17139;52.140;11.636;2023-08-31T00:32:24;14.00;58.30
9425;DHT22;17139;52.140;11.636;2023-08-31T00:34:52;14.00;58.60
9425;DHT22;17139;52.140;11.636;2023-08-31T00:37:18;13.90;59.30
9425;DHT22;17139;52.140;11.636;2023-08-31T00:39:47;13.80;58.70
9425;DHT22;17139;52.140;11.636;2023-08-31T00:42:17;13.80;58.80
9425;DHT22;17139;52.140;11.636;2023-08-31T00:44:45;13.70;58.70
9425;DHT22;17139;52.140;11.636;2023-08-31T00:47:13;13.70;58.80
9425;DHT22;17139;52.140;11.636;2023-08-31T00:49:41;14.50;60.30
9425;DHT22;17139;52.140;11.636;2023-08-31T00:52:09;14.30;58.60
9425;DHT22;17139;52.140;11.636;2023-08-31T00:54:36;14.50;59.80
9425;DHT22;17139;52.140;11.636;2023-08-31T00:57:04;14.30;58.70
9425;DHT22;17139;52.140;11.636;2023-08-31T00:59:31;14.10;58.70
9425;DHT22;17139;52.140;11.636;2023-08-31T01:02:02;14.00;58.90
9425;DHT22;17139;52.140;11.636;2023-08-31T01:04:38;13.90;59.00
9425;DHT22;17139;52.140;11.636;2023-08-31T01:07:19;13.80;59.00
9425;DHT22;17139;52.140;11.636;2023-08-31T01:09:53;13.80;59.10
9425;DHT22;17139;52.140;11.636;2023-08-31T01:12:28;13.70;59.10
9425;DHT22;17139;52.140;11.636;2023-08-31T01:15:02;13.60;59.10
9425;DHT22;17139;52.140;11.636;2023-08-31T01:17:34;14.50;60.10
9425;DHT22;17139;52.140;11.636;2023-08-31T01:20:05;14.10;58.70
9425;DHT22;17139;52.140;11.636;2023-08-31T01:22:39;14.50;59.80
9425;DHT22;17139;52.140;11.636;2023-08-31T01:25:09;14.10;58.70
9425;DHT22;17139;52.140;11.636;2023-08-31T01:27:37;13.90;58.90
9425;DHT22;17139;52.140;11.636;2023-08-31T01:30:06;13.80;59.20
9425;DHT22;17139;52.140;11.636;2023-08-31T01:32:34;13.70;59.20
9425;DHT22;17139;52.140;11.636;2023-08-31T01:35:03;13.70;59.20
9425;DHT22;17139;52.140;11.636;2023-08-31T01:37:37;13.70;59.20
9425;DHT22;17139;52.140;11.636;2023-08-31T01:40:13;13.60;59.00
9425;DHT22;17139;52.140;11.636;2023-08-31T01:42:42;13.60;59.10
9425;DHT22;17139;52.140;11.636;2023-08-31T01:45:11;14.40;60.50
9425;DHT22;17139;52.140;11.636;2023-08-31T01:47:41;14.20;58.90
9425;DHT22;17139;52.140;11.636;2023-08-31T01:50:09;14.30;59.90
9425;DHT22;17139;52.140;11.636;2023-08-31T01:52:36;14.10;59.00
9425;DHT22;17139;52.140;11.636;2023-08-31T01:55:03;14.00;59.20
9425;DHT22;17139;52.140;11.636;2023-08-31T01:57:32;13.80;59.30
9425;DHT22;17139;52.140;11.636;2023-08-31T01:59:59;13.80;59.50
9425;DHT22;17139;52.140;11.636;2023-08-31T02:02:26;13.70;59.30
9425;DHT22;17139;52.140;11.636;2023-08-31T02:04:53;13.60;59.40
9425;DHT22;17139;52.140;11.636;2023-08-31T02:07:20;13.70;59.50
9425;DHT22;17139;52.140;11.636;2023-08-31T02:09:47;13.60;59.40
9425;DHT22;17139;52.140;11.636;2023-08-31T02:12:14;13.90;60.50
9425;DHT22;17139;52.140;11.636;2023-08-31T02:14:43;13.90;59.30
9425;DHT22;17139;52.140;11.636;2023-08-31T02:17:10;13.80;59.20
9425;DHT22;17139;52.140;11.636;2023-08-31T02:19:37;13.60;59.10
9425;DHT22;17139;52.140;11.636;2023-08-31T02:22:04;13.50;59.30
9425;DHT22;17139;52.140;11.636;2023-08-31T02:24:31;13.50;59.30
9425;DHT22;17139;52.140;11.636;2023-08-31T02:26:58;13.40;59.30
9425;DHT22;17139;52.140;11.636;2023-08-31T02:29:25;13.50;59.30
9425;DHT22;17139;52.140;11.636;2023-08-31T02:31:53;13.40;59.30
9425;DHT22;17139;52.140;11.636;2023-08-31T02:34:20;13.40;59.30
9425;DHT22;17139;52.140;11.636;2023-08-31T02:36:47;13.40;59.30
9425;DHT22;17139;52.140;11.636;2023-08-31T02:39:14;13.40;59.30
9425;DHT22;17139;52.140;11.636;2023-08-31T02:41:42;13.40;59.30
9425;DHT22;17139;52.140;11.636;2023-08-31T02:44:09;13.40;59.20
9425;DHT22;17139;52.140;11.636;2023-08-31T02:46:36;14.20;60.50
9425;DHT22;17139;52.140;11.636;2023-08-31T02:49:05;14.00;59.20
9425;DHT22;17139;52.140;11.636;2023-08-31T02:51:32;13.80;59.20
9425;DHT22;17139;52.140;11.636;2023-08-31T02:53:59;13.60;59.30
9425;DHT22;17139;52.140;11.636;2023-08-31T02:56:27;13.50;59.50
9425;DHT22;17139;52.140;11.636;2023-08-31T02:58:54;13.40;59.60
9425;DHT22;17139;52.140;11.636;2023-08-31T03:01:21;13.40;59.60
9425;DHT22;17139;52.140;11.636;2023-08-31T03:03:48;13.30;59.60
9425;DHT22;17139;52.140;11.636;2023-08-31T03:06:17;13.30;59.60
9425;DHT22;17139;52.140;11.636;2023-08-31T03:08:44;13.30;59.60
9425;DHT22;17139;52.140;11.636;2023-08-31T03:11:12;13.20;59.60
9425;DHT22;17139;52.140;11.636;2023-08-31T03:13:40;13.60;60.90
9425;DHT22;17139;52.140;11.636;2023-08-31T03:16:07;13.50;59.60
9425;DHT22;17139;52.140;11.636;2023-08-31T03:18:34;13.40;59.60
9425;DHT22;17139;52.140;11.636;2023-08-31T03:21:01;13.30;60.30
9425;DHT22;17139;52.140;11.636;2023-08-31T03:23:30;13.20;59.60
9425;DHT22;17139;52.140;11.636;2023-08-31T03:25:57;13.20;59.70
9425;DHT22;17139;52.140;11.636;2023-08-31T03:28:24;13.20;59.80
9425;DHT22;17139;52.140;11.636;2023-08-31T03:30:54;13.10;59.70
9425;DHT22;17139;52.140;11.636;2023-08-31T03:33:21;13.10;59.80
9425;DHT22;17139;52.140;11.636;2023-08-31T03:35:48;13.00;59.70
9425;DHT22;17139;52.140;11.636;2023-08-31T03:38:15;13.00;59.80
9425;DHT22;17139;52.140;11.636;2023-08-31T03:40:52;13.00;59.90
9425;DHT22;17139;52.140;11.636;2023-08-31T03:43:19;12.90;59.90
9425;DHT22;17139;52.140;11.636;2023-08-31T03:45:46;12.90;59.70
9425;DHT22;17139;52.140;11.636;2023-08-31T03:48:13;12.80;59.80
9425;DHT22;17139;52.140;11.636;2023-08-31T03:50:40;12.80;59.70
9425;DHT22;17139;52.140;11.636;2023-08-31T03:53:07;12.80;59.60
9425;DHT22;17139;52.140;11.636;2023-08-31T03:55:36;12.70;59.70
9425;DHT22;17139;52.140;11.636;2023-08-31T03:58:04;12.70;59.70
9425;DHT22;17139;52.140;11.636;2023-08-31T04:00:31;12.70;60.00
9425;DHT22;17139;52.140;11.636;2023-08-31T04:02:58;12.60;59.70
9425;DHT22;17139;52.140;11.636;2023-08-31T04:05:25;12.50;59.70
9425;DHT22;17139;52.140;11.636;2023-08-31T04:07:52;12.60;60.90
9425;DHT22;17139;52.140;11.636;2023-08-31T04:10:19;12.80;60.50
9425;DHT22;17139;52.140;11.636;2023-08-31T04:12:46;12.90;60.60
9425;DHT22;17139;52.140;11.636;2023-08-31T04:15:15;13.20;60.50
9425;DHT22;17139;52.140;11.636;2023-08-31T04:17:42;13.30;60.30
9425;DHT22;17139;52.140;11.636;2023-08-31T04:20:10;13.40;60.10
9425;DHT22;17139;52.140;11.636;2023-08-31T04:22:37;13.50;59.90
9425;DHT22;17139;52.140;11.636;2023-08-31T04:25:05;13.60;59.90
9425;DHT22;17139;52.140;11.636;2023-08-31T04:27:32;13.70;59.90
9425;DHT22;17139;52.140;11.636;2023-08-31T04:30:00;14.00;60.10
9425;DHT22;17139;52.140;11.636;2023-08-31T04:32:29;13.90;59.30
9425;DHT22;17139;52.140;11.636;2023-08-31T04:34:56;13.70;59.30
9425;DHT22;17139;52.140;11.636;2023-08-31T04:37:23;13.60;59.70
9425;DHT22;17139;52.140;11.636;2023-08-31T04:39:50;13.50;59.60
9425;DHT22;17139;52.140;11.636;2023-08-31T04:42:17;13.50;59.80
9425;DHT22;17139;52.140;11.636;2023-08-31T04:44:44;13.30;59.70
9425;DHT22;17139;52.140;11.636;2023-08-31T04:47:11;13.30;59.80
9425;DHT22;17139;52.140;11.636;2023-08-31T04:49:39;13.30;59.90
9425;DHT22;17139;52.140;11.636;2023-08-31T04:52:06;13.40;60.00
9425;DHT22;17139;52.140;11.636;2023-08-31T04:54:33;13.30;59.70
9425;DHT22;17139;52.140;11.636;2023-08-31T04:57:00;13.90;60.00
9425;DHT22;17139;52.140;11.636;2023-08-31T04:59:29;13.70;59.10
9425;DHT22;17139;52.140;11.636;2023-08-31T05:01:56;13.90;59.60
9425;DHT22;17139;52.140;11.636;2023-08-31T05:04:23;13.80;59.10
9425;DHT22;17139;52.140;11.636;2023-08-31T05:06:51;13.60;59.30
9425;DHT22;17139;52.140;11.636;2023-08-31T05:09:18;13.50;59.60
9425;DHT22;17139;52.140;11.636;2023-08-31T05:11:45;13.50;59.60
9425;DHT22;17139;52.140;11.636;2023-08-31T05:14:12;13.40;59.60
9425;DHT22;17139;52.140;11.636;2023-08-31T05:16:39;13.40;59.70
9425;DHT22;17139;52.140;11.636;2023-08-31T05:19:06;13.40;59.80
9425;DHT22;17139;52.140;11.636;2023-08-31T05:21:33;13.40;59.70
9425;DHT22;17139;52.140;11.636;2023-08-31T05:24:02;13.40;59.70
9425;DHT22;17139;52.140;11.636;2023-08-31T05:26:29;13.50;59.80
9425;DHT22;17139;52.140;11.636;2023-08-31T05:28:56;13.50;59.70
9425;DHT22;17139;52.140;11.636;2023-08-31T05:31:23;13.80;60.00
9425;DHT22;17139;52.140;11.636;2023-08-31T05:33:50;13.80;59.20
9425;DHT22;17139;52.140;11.636;2023-08-31T05:36:18;13.80;59.20
9425;DHT22;17139;52.140;11.636;2023-08-31T05:38:45;13.80;59.20
9425;DHT22;17139;52.140;11.636;2023-08-31T05:41:13;13.70;59.10
9425;DHT22;17139;52.140;11.636;2023-08-31T05:43:40;13.70;59.30
9425;DHT22;17139;52.140;11.636;2023-08-31T05:46:07;13.70;59.40
9425;DHT22;17139;52.140;11.636;2023-08-31T05:48:34;14.50;59.20
9425;DHT22;17139;52.140;11.636;2023-08-31T05:51:02;14.40;58.60
9425;DHT22;17139;52.140;11.636;2023-08-31T05:53:29;14.80;58.50
9425;DHT22;17139;52.140;11.636;2023-08-31T05:55:57;14.60;58.80
9425;DHT22;17139;52.140;11.636;2023-08-31T05:58:31;14.50;58.50
9425;DHT22;17139;52.140;11.636;2023-08-31T06:00:58;14.30;58.60
9425;DHT22;17139;52.140;11.636;2023-08-31T06:03:25;14.20;58.80
9425;DHT22;17139;52.140;11.636;2023-08-31T06:05:53;14.10;58.90
9425;DHT22;17139;52.140;11.636;2023-08-31T06:08:20;14.10;59.10
9425;DHT22;17139;52.140;11.636;2023-08-31T06:10:47;14.10;59.10
9425;DHT22;17139;52.140;11.636;2023-08-31T06:13:14;14.10;59.30
9425;DHT22;17139;52.140;11.636;2023-08-31T06:15:42;14.10;59.00
9425;DHT22;17139;52.140;11.636;2023-08-31T06:18:10;14.10;59.00
9425;DHT22;17139;52.140;11.636;2023-08-31T06:20:37;14.90;58.50
9425;DHT22;17139;52.140;11.636;2023-08-31T06:23:04;15.30;57.90
9425;DHT22;17139;52.140;11.636;2023-08-31T06:25:31;14.80;57.80
9425;DHT22;17139;52.140;11.636;2023-08-31T06:27:58;14.40;58.30
9425;DHT22;17139;52.140;11.636;2023-08-31T06:30:25;14.20;58.70
9425;DHT22;17139;52.140;11.636;2023-08-31T06:32:54;14.00;59.00
9425;DHT22;17139;52.140;11.636;2023-08-31T06:35:21;14.30;59.30
9425;DHT22;17139;52.140;11.636;2023-08-31T06:37:49;14.20;58.90
9425;DHT22;17139;52.140;11.636;2023-08-31T06:40:16;14.00;59.10
9425;DHT22;17139;52.140;11.636;2023-08-31T06:42:43;13.90;59.30
9425;DHT22;17139;52.140;11.636;2023-08-31T06:45:10;13.90;59.40
9425;DHT22;17139;52.140;11.636;2023-08-31T06:47:37;14.10;59.50
9425;DHT22;17139;52.140;11.636;2023-08-31T06:50:06;14.20;59.20
9425;DHT22;17139;52.140;11.636;2023-08-31T06:52:33;14.30;59.10
9425;DHT22;17139;52.140;11.636;2023-08-31T06:55:01;14.30;58.80
9425;DHT22;17139;52.140;11.636;2023-08-31T06:57:28;14.30;58.90
9425;DHT22;17139;52.140;11.636;2023-08-31T06:59:55;14.20;58.90
9425;DHT22;17139;52.140;11.636;2023-08-31T07:02:25;15.00;58.10
9425;DHT22;17139;52.140;11.636;2023-08-31T07:04:53;14.70;57.80
9425;DHT22;17139;52.140;11.636;2023-08-31T07:07:21;15.10;58.00
9425;DHT22;17139;52.140;11.636;2023-08-31T07:09:48;14.90;57.80
9425;DHT22;17139;52.140;11.636;2023-08-31T07:12:15;14.80;58.00
9425;DHT22;17139;52.140;11.636;2023-08-31T07:14:42;14.70;58.10
9425;DHT22;17139;52.140;11.636;2023-08-31T07:17:09;14.70;58.10
9425;DHT22;17139;52.140;11.636;2023-08-31T07:19:37;14.80;58.10
9425;DHT22;17139;52.140;11.636;2023-08-31T07:22:04;14.90;58.20
9425;DHT22;17139;52.140;11.636;2023-08-31T07:24:33;15.00;58.20
9425;DHT22;17139;52.140;11.636;2023-08-31T07:27:02;15.10;58.00
9425;DHT22;17139;52.140;11.636;2023-08-31T07:29:29;16.00;56.70
9425;DHT22;17139;52.140;11.636;2023-08-31T07:31:56;15.80;56.70
9425;DHT22;17139;52.140;11.636;2023-08-31T07:34:24;16.10;56.20
9425;DHT22;17139;52.140;11.636;2023-08-31T07:36:52;15.80;56.50
9425;DHT22;17139;52.140;11.636;2023-08-31T07:39:19;15.50;57.60
9425;DHT22;17139;52.140;11.636;2023-08-31T07:41:48;15.40;57.30
9425;DHT22;17139;52.140;11.636;2023-08-31T07:44:15;15.40;57.60
9425;DHT22;17139;52.140;11.636;2023-08-31T07:46:42;15.40;57.60
9425;DHT22;17139;52.140;11.636;2023-08-31T07:49:09;15.30;57.60
9425;DHT22;17139;52.140;11.636;2023-08-31T07:51:36;15.30;57.70
9425;DHT22;17139;52.140;11.636;2023-08-31T07:54:03;15.30;57.90
9425;DHT22;17139;52.140;11.636;2023-08-31T07:56:30;15.90;56.60
9425;DHT22;17139;52.140;11.636;2023-08-31T07:58:58;15.80;56.70
9425;DHT22;17139;52.140;11.636;2023-08-31T08:01:25;15.90;56.70
9425;DHT22;17139;52.140;11.636;2023-08-31T08:03:53;15.80;57.10
9425;DHT22;17139;52.140;11.636;2023-08-31T08:06:19;15.80;57.20
9425;DHT22;17139;52.140;11.636;2023-08-31T08:08:46;15.80;57.20
9425;DHT22;17139;52.140;11.636;2023-08-31T08:11:14;15.80;57.30
9425;DHT22;17139;52.140;11.636;2023-08-31T08:13:41;15.70;57.30
9425;DHT22;17139;52.140;11.636;2023-08-31T08:16:10;15.70;57.40
9425;DHT22;17139;52.140;11.636;2023-08-31T08:18:37;15.70;57.40
9425;DHT22;17139;52.140;11.636;2023-08-31T08:21:04;15.80;57.40
9425;DHT22;17139;52.140;11.636;2023-08-31T08:23:31;16.00;56.70
9425;DHT22;17139;52.140;11.636;2023-08-31T08:25:58;15.90;56.60
9425;DHT22;17139;52.140;11.636;2023-08-31T08:28:26;15.90;56.70
9425;DHT22;17139;52.140;11.636;2023-08-31T08:30:53;15.90;57.00
9425;DHT22;17139;52.140;11.636;2023-08-31T08:33:22;15.90;57.10
9425;DHT22;17139;52.140;11.636;2023-08-31T08:35:49;16.10;56.80
9425;DHT22;17139;52.140;11.636;2023-08-31T08:38:16;16.10;56.80
9425;DHT22;17139;52.140;11.636;2023-08-31T08:40:43;16.20;56.60
9425;DHT22;17139;52.140;11.636;2023-08-31T08:43:10;16.10;56.50
9425;DHT22;17139;52.140;11.636;2023-08-31T08:45:38;16.00;56.70
9425;DHT22;17139;52.140;11.636;2023-08-31T08:48:07;15.90;56.60
9425;DHT22;17139;52.140;11.636;2023-08-31T08:50:36;15.80;56.70
9425;DHT22;17139;52.140;11.636;2023-08-31T08:53:04;15.70;57.10
9425;DHT22;17139;52.140;11.636;2023-08-31T08:55:32;15.60;57.60
9425;DHT22;17139;52.140;11.636;2023-08-31T08:57:59;16.50;56.80
9425;DHT22;17139;52.140;11.636;2023-08-31T09:00:27;16.30;56.80
9425;DHT22;17139;52.140;11.636;2023-08-31T09:02:54;16.10;56.80
9425;DHT22;17139;52.140;11.636;2023-08-31T09:05:22;16.10;57.00
9425;DHT22;17139;52.140;11.636;2023-08-31T09:08:03;16.00;57.20
9425;DHT22;17139;52.140;11.636;2023-08-31T09:10:36;16.10;57.10
9425;DHT22;17139;52.140;11.636;2023-08-31T09:13:08;16.10;56.80
9425;DHT22;17139;52.140;11.636;2023-08-31T09:15:39;16.20;56.70
9425;DHT22;17139;52.140;11.636;2023-08-31T09:18:08;16.40;56.60
9425;DHT22;17139;52.140;11.636;2023-08-31T09:20:45;17.40;54.00
9425;DHT22;17139;52.140;11.636;2023-08-31T09:23:14;17.30;54.70
9425;DHT22;17139;52.140;11.636;2023-08-31T09:25:42;17.40;53.90
9425;DHT22;17139;52.140;11.636;2023-08-31T09:28:12;17.20;54.80
9425;DHT22;17139;52.140;11.636;2023-08-31T09:30:39;17.10;55.10
9425;DHT22;17139;52.140;11.636;2023-08-31T09:33:07;17.10;55.30
9425;DHT22;17139;52.140;11.636;2023-08-31T09:35:39;17.00;55.30
9425;DHT22;17139;52.140;11.636;2023-08-31T09:38:10;17.00;55.20
9425;DHT22;17139;52.140;11.636;2023-08-31T09:40:38;17.00;55.30
9425;DHT22;17139;52.140;11.636;2023-08-31T09:43:05;16.90;55.30
9425;DHT22;17139;52.140;11.636;2023-08-31T09:45:33;16.90;55.30
9425;DHT22;17139;52.140;11.636;2023-08-31T09:48:02;17.00;55.30
9425;DHT22;17139;52.140;11.636;2023-08-31T09:50:31;17.00;55.10
9425;DHT22;17139;52.140;11.636;2023-08-31T09:53:00;17.10;55.20
9425;DHT22;17139;52.140;11.636;2023-08-31T09:55:31;18.00;52.10
9425;DHT22;17139;52.140;11.636;2023-08-31T09:58:01;17.90;53.40
9425;DHT22;17139;52.140;11.636;2023-08-31T10:00:30;17.70;53.60
9425;DHT22;17139;52.140;11.636;2023-08-31T10:03:02;17.60;53.60
9425;DHT22;17139;52.140;11.636;2023-08-31T10:05:29;17.60;53.90
9425;DHT22;17139;52.140;11.636;2023-08-31T10:07:57;17.50;54.00
9425;DHT22;17139;52.140;11.636;2023-08-31T10:10:25;17.60;54.10
9425;DHT22;17139;52.140;11.636;2023-08-31T10:12:53;17.70;54.10
9425;DHT22;17139;52.140;11.636;2023-08-31T10:15:22;17.60;54.20
9425;DHT22;17139;52.140;11.636;2023-08-31T10:17:49;18.20;51.30
9425;DHT22;17139;52.140;11.636;2023-08-31T10:20:17;17.80;52.50
9425;DHT22;17139;52.140;11.636;2023-08-31T10:22:44;18.10;51.20
9425;DHT22;17139;52.140;11.636;2023-08-31T10:25:12;17.80;52.40
9425;DHT22;17139;52.140;11.636;2023-08-31T10:27:40;17.60;53.00
9425;DHT22;17139;52.140;11.636;2023-08-31T10:30:15;17.50;53.50
9425;DHT22;17139;52.140;11.636;2023-08-31T10:32:44;17.50;53.60
9425;DHT22;17139;52.140;11.636;2023-08-31T10:35:11;17.40;54.00
9425;DHT22;17139;52.140;11.636;2023-08-31T10:37:39;17.30;53.90
9425;DHT22;17139;52.140;11.636;2023-08-31T10:40:08;17.30;53.90
9425;DHT22;17139;52.140;11.636;2023-08-31T10:42:44;17.30;53.70
9425;DHT22;17139;52.140;11.636;2023-08-31T10:45:12;17.50;52.40
9425;DHT22;17139;52.140;11.636;2023-08-31T10:47:40;17.40;53.10
9425;DHT22;17139;52.140;11.636;2023-08-31T10:50:22;17.50;53.50
9425;DHT22;17139;52.140;11.636;2023-08-31T10:52:49;18.20;50.80
9425;DHT22;17139;52.140;11.636;2023-08-31T10:55:16;18.00;51.80
9425;DHT22;17139;52.140;11.636;2023-08-31T10:57:43;17.90;52.50
9425;DHT22;17139;52.140;11.636;2023-08-31T11:00:11;17.90;52.70
9425;DHT22;17139;52.140;11.636;2023-08-31T11:02:42;17.80;52.90
9425;DHT22;17139;52.140;11.636;2023-08-31T11:05:10;17.90;52.90
9425;DHT22;17139;52.140;11.636;2023-08-31T11:07:39;17.90;53.10
9425;DHT22;17139;52.140;11.636;2023-08-31T11:10:09;17.80;53.20
9425;DHT22;17139;52.140;11.636;2023-08-31T11:12:37;17.80;53.10
9425;DHT22;17139;52.140;11.636;2023-08-31T11:15:05;18.30;51.10
9425;DHT22;17139;52.140;11.636;2023-08-31T11:17:32;18.30;52.20
9425;DHT22;17139;52.140;11.636;2023-08-31T11:20:00;18.30;52.30
9425;DHT22;17139;52.140;11.636;2023-08-31T11:22:31;18.30;52.50
9425;DHT22;17139;52.140;11.636;2023-08-31T11:25:13;18.30;52.60
9425;DHT22;17139;52.140;11.636;2023-08-31T11:27:40;18.40;52.50
9425;DHT22;17139;52.140;11.636;2023-08-31T11:30:14;18.30;52.60
9425;DHT22;17139;52.140;11.636;2023-08-31T11:32:46;18.30;52.40
9425;DHT22;17139;52.140;11.636;2023-08-31T11:35:14;18.30;52.70
9425;DHT22;17139;52.140;11.636;2023-08-31T11:37:42;18.10;52.70
9425;DHT22;17139;52.140;11.636;2023-08-31T11:40:13;18.00;52.50
9425;DHT22;17139;52.140;11.636;2023-08-31T11:42:41;17.80;52.90
9425;DHT22;17139;52.140;11.636;2023-08-31T11:45:10;18.40;49.80
9425;DHT22;17139;52.140;11.636;2023-08-31T11:47:38;18.20;51.40
9425;DHT22;17139;52.140;11.636;2023-08-31T11:50:07;18.50;49.80
9425;DHT22;17139;52.140;11.636;2023-08-31T11:52:34;18.10;51.10
9425;DHT22;17139;52.140;11.636;2023-08-31T11:55:01;18.30;50.00
9425;DHT22;17139;52.140;11.636;2023-08-31T11:57:30;17.90;51.30
9425;DHT22;17139;52.140;11.636;2023-08-31T11:59:57;17.70;52.20
9425;DHT22;17139;52.140;11.636;2023-08-31T12:02:24;17.50;52.60
9425;DHT22;17139;52.140;11.636;2023-08-31T12:04:51;17.40;52.90
9425;DHT22;17139;52.140;11.636;2023-08-31T12:07:18;17.20;53.30
9425;DHT22;17139;52.140;11.636;2023-08-31T12:09:46;16.70;53.40
9425;DHT22;17139;52.140;11.636;2023-08-31T12:12:14;16.80;52.90
9425;DHT22;17139;52.140;11.636;2023-08-31T12:14:43;15.90;53.30
9425;DHT22;17139;52.140;11.636;2023-08-31T12:17:10;15.80;54.50
9425;DHT22;17139;52.140;11.636;2023-08-31T12:19:38;15.60;54.90
9425;DHT22;17139;52.140;11.636;2023-08-31T12:22:06;15.50;55.20
9425;DHT22;17139;52.140;11.636;2023-08-31T12:24:38;15.20;55.10
9425;DHT22;17139;52.140;11.636;2023-08-31T12:27:06;15.00;55.60
9425;DHT22;17139;52.140;11.636;2023-08-31T12:29:33;15.10;56.00
9425;DHT22;17139;52.140;11.636;2023-08-31T12:32:01;15.10;56.20
9425;DHT22;17139;52.140;11.636;2023-08-31T12:34:29;15.20;56.10
9425;DHT22;17139;52.140;11.636;2023-08-31T12:36:56;15.80;56.50
9425;DHT22;17139;52.140;11.636;2023-08-31T12:39:27;15.60;55.60
9425;DHT22;17139;52.140;11.636;2023-08-31T12:41:54;15.70;56.40
9425;DHT22;17139;52.140;11.636;2023-08-31T12:44:22;15.50;56.50
9425;DHT22;17139;52.140;11.636;2023-08-31T12:46:51;15.40;56.20
9425;DHT22;17139;52.140;11.636;2023-08-31T12:49:19;15.20;56.00
9425;DHT22;17139;52.140;11.636;2023-08-31T12:51:47;15.20;56.30
9425;DHT22;17139;52.140;11.636;2023-08-31T12:54:16;15.20;56.30
9425;DHT22;17139;52.140;11.636;2023-08-31T12:56:43;15.20;56.20
9425;DHT22;17139;52.140;11.636;2023-08-31T12:59:10;15.20;56.30
9425;DHT22;17139;52.140;11.636;2023-08-31T13:01:37;15.20;56.40
9425;DHT22;17139;52.140;11.636;2023-08-31T13:04:04;16.00;56.70
9425;DHT22;17139;52.140;11.636;2023-08-31T13:06:33;15.80;56.10
9425;DHT22;17139;52.140;11.636;2023-08-31T13:09:00;16.30;56.10
9425;DHT22;17139;52.140;11.636;2023-08-31T13:11:28;15.90;55.80
9425;DHT22;17139;52.140;11.636;2023-08-31T13:13:55;15.50;56.30
9425;DHT22;17139;52.140;11.636;2023-08-31T13:16:22;15.40;56.90
9425;DHT22;17139;52.140;11.636;2023-08-31T13:18:50;15.30;57.00
9425;DHT22;17139;52.140;11.636;2023-08-31T13:21:17;15.40;57.00
9425;DHT22;17139;52.140;11.636;2023-08-31T13:23:45;15.40;57.00
9425;DHT22;17139;52.140;11.636;2023-08-31T13:26:12;15.60;56.70
9425;DHT22;17139;52.140;11.636;2023-08-31T13:28:40;15.90;56.60
9425;DHT22;17139;52.140;11.636;2023-08-31T13:31:07;15.80;56.10
9425;DHT22;17139;52.140;11.636;2023-08-31T13:33:34;15.70;56.40
9425;DHT22;17139;52.140;11.636;2023-08-31T13:36:01;16.40;56.50
9425;DHT22;17139;52.140;11.636;2023-08-31T13:38:29;16.20;55.80
9425;DHT22;17139;52.140;11.636;2023-08-31T13:40:57;15.90;55.80
9425;DHT22;17139;52.140;11.636;2023-08-31T13:43:24;15.70;56.10
9425;DHT22;17139;52.140;11.636;2023-08-31T13:45:51;15.60;56.40
9425;DHT22;17139;52.140;11.636;2023-08-31T13:48:19;15.50;56.30
9425;DHT22;17139;52.140;11.636;2023-08-31T13:50:48;15.50;56.50
9425;DHT22;17139;52.140;11.636;2023-08-31T13:53:15;15.50;56.80
9425;DHT22;17139;52.140;11.636;2023-08-31T13:55:42;15.70;56.80
9425;DHT22;17139;52.140;11.636;2023-08-31T13:58:10;15.70;56.60
9425;DHT22;17139;52.140;11.636;2023-08-31T14:00:37;16.60;56.10
9425;DHT22;17139;52.140;11.636;2023-08-31T14:03:05;16.40;55.80
9425;DHT22;17139;52.140;11.636;2023-08-31T14:05:32;16.30;56.00
9425;DHT22;17139;52.140;11.636;2023-08-31T14:08:00;16.20;56.20
9425;DHT22;17139;52.140;11.636;2023-08-31T14:10:30;16.10;56.10
9425;DHT22;17139;52.140;11.636;2023-08-31T14:12:58;16.10;56.30
9425;DHT22;17139;52.140;11.636;2023-08-31T14:15:27;16.10;56.30
9425;DHT22;17139;52.140;11.636;2023-08-31T14:17:54;16.10;56.40
9425;DHT22;17139;52.140;11.636;2023-08-31T14:20:21;16.70;55.60
9425;DHT22;17139;52.140;11.636;2023-08-31T14:22:48;16.60;55.30
9425;DHT22;17139;52.140;11.636;2023-08-31T14:25:16;16.70;55.00
9425;DHT22;17139;52.140;11.636;2023-08-31T14:27:43;16.60;55.20
9425;DHT22;17139;52.140;11.636;2023-08-31T14:30:10;17.30;54.00
9425;DHT22;17139;52.140;11.636;2023-08-31T14:32:39;17.00;54.20
9425;DHT22;17139;52.140;11.636;2023-08-31T14:35:06;16.80;54.80
9425;DHT22;17139;52.140;11.636;2023-08-31T14:37:33;16.70;55.10
9425;DHT22;17139;52.140;11.636;2023-08-31T14:40:00;16.60;55.30
9425;DHT22;17139;52.140;11.636;2023-08-31T14:42:29;16.60;55.50
9425;DHT22;17139;52.140;11.636;2023-08-31T14:44:55;16.70;55.50
9425;DHT22;17139;52.140;11.636;2023-08-31T14:47:22;17.00;54.60
9425;DHT22;17139;52.140;11.636;2023-08-31T14:49:50;17.00;54.60
9425;DHT22;17139;52.140;11.636;2023-08-31T14:52:17;16.80;54.70
9425;DHT22;17139;52.140;11.636;2023-08-31T14:54:44;17.00;53.70
9425;DHT22;17139;52.140;11.636;2023-08-31T14:57:11;16.90;54.30
9425;DHT22;17139;52.140;11.636;2023-08-31T14:59:38;16.80;54.60
9425;DHT22;17139;52.140;11.636;2023-08-31T15:02:05;16.80;54.90
9425;DHT22;17139;52.140;11.636;2023-08-31T15:04:33;16.90;55.00
9425;DHT22;17139;52.140;11.636;2023-08-31T15:07:01;17.60;53.30
9425;DHT22;17139;52.140;11.636;2023-08-31T15:09:29;17.40;53.60
9425;DHT22;17139;52.140;11.636;2023-08-31T15:11:56;17.90;52.50
9425;DHT22;17139;52.140;11.636;2023-08-31T15:14:23;17.60;53.20
9425;DHT22;17139;52.140;11.636;2023-08-31T15:16:51;17.40;53.40
9425;DHT22;17139;52.140;11.636;2023-08-31T15:19:18;17.30;54.00
9425;DHT22;17139;52.140;11.636;2023-08-31T15:21:45;17.10;54.70
9425;DHT22;17139;52.140;11.636;2023-08-31T15:24:13;17.10;54.90
9425;DHT22;17139;52.140;11.636;2023-08-31T15:26:40;17.10;54.60
9425;DHT22;17139;52.140;11.636;2023-08-31T15:29:08;17.10;54.70
9425;DHT22;17139;52.140;11.636;2023-08-31T15:31:35;17.60;53.00
9425;DHT22;17139;52.140;11.636;2023-08-31T15:34:02;17.40;53.40